x

Cape Elizabeth- 45nm Nw Of Aberdeen, Wa (46041) Wave Buoy

6:50am - Fri 4th Sep 2015 All times are PDT. -7 hours from GMT.

  • Sig Wave height 4.6ft
  • Swell Direction
  • Peak Period 9s
  • Average Period 7s
  • Wind
    4mph
  • Sea Temp 60°f
  • Air Temp 55°f
  • Sea Pressure 1015.9mb
  • Cape Elizabeth- 45nm Nw Of Aberdeen, Wa
  • Cape Elizabeth- 45nm Nw Of Aberdeen, Wa

More Historic Weather Station data

Upgrade to MSW Pro to gain access to the past 30 days of data for over 8000 Wavebouys and Weather Stations around the globe.

Join Pro

Comparision Forecast

View Surf forecast
   
Fri 09/04 6:50am 4.5ft 9s 7s 4
mph
1015.9mb 60f 55f
5:50am 5ft 9s 7s 4 7 mph 1015.6mb 60f 55f
4:50am 4.5ft 9s 7s 7 9 mph 1015.2mb 60f 55f
3:50am 5ft 9s 7s 7 9 mph 1015.2mb 60f 55f
2:50am 5ft 9s 8s 7 9 mph 1015.2mb 60f 56f
1:50am 5ft 9s 7s 7 9 mph 1015.5mb 60f 56f
12:50am 5ft 9s 7s 7 9 mph 1015.7mb 60f 56f
Thu 09/03 11:50pm 5.5ft 9s 7s 7 9 mph 1015.8mb 60f 57f
10:50pm 6ft 10s 7s 4 7 mph 1015.7mb 61f 59f
9:50pm 6.5ft 10s 7s 2
mph
1015.8mb 60f 59f
8:50pm 6ft 10s 7s 4
mph
1015.6mb 61f 59f
7:50pm 5ft 10s 7s 4
mph
1015.3mb 61f 59f
6:50pm 5.5ft 10s 7s 4
mph
1015.4mb 61f 60f
5:50pm 6.5ft 10s 8s 4
mph
1015.3mb 61f 61f
4:50pm 6ft 10s 8s 4 7 mph 1015.5mb 61f 60f
3:50pm 6ft 10s 7s 2 4 mph 1015.6mb 61f 60f
2:50pm 6ft 11s 8s 2 4 mph 1015.7mb 61f 60f
1:50pm 7ft 11s 8s 7 9 mph 1015.9mb 60f 59f
12:50pm 7.5ft 10s 8s 11 13 mph 1016mb 60f 57f
11:50am 7ft 10s 8s 13 16 mph 1016.3mb 60f 57f
10:50am 7ft 9s 8s 9 11 mph 1016.3mb 60f 57f
9:50am 7ft 11s 8s 7 9 mph 1016mb 60f 57f
8:50am 7.5ft 11s 8s 7 9 mph 1015.9mb 60f 57f
7:50am 7ft 11s 8s 7 9 mph 1015.6mb 60f 56f
6:50am 6.5ft 11s 7s 9 11 mph 1015.4mb 60f 55f
5:50am 7ft 11s 8s 9 16 mph 1014.9mb 60f 56f
4:50am 8ft 11s 8s 9 11 mph 1014.8mb 60f 57f
3:50am 8ft 11s 8s 2 4 mph 1014.7mb 60f 59f
2:50am 7ft 11s 7s 2 4 mph 1014.4mb 60f 59f
1:50am 8.5ft 11s 8s 4
mph
1014.6mb 60f 59f
12:50am 9ft 11s 8s 4 7 mph 1014.6mb 60f 59f
Wed 09/02 11:50pm 9ft 11s 8s 7 9 mph 1014.6mb 60f 59f
10:50pm 9.5ft 11s 8s 7 9 mph 1014.8mb 60f 60f
9:50pm 8ft 12s 8s 4 7 mph 1014.7mb 60f 60f
8:50pm 9ft 10s 8s 7 9 mph 1014.5mb 60f 60f
7:50pm 8.5ft 11s 8s 11 13 mph 1014mb 60f 60f
6:50pm 9ft 11s 8s 9 13 mph 1013.8mb 60f 60f
5:50pm 8.5ft 12s 8s 11 13 mph 1013.5mb 60f 60f
4:50pm 9ft 11s 8s 9 13 mph 1013.3mb 60f 60f
3:50pm 9ft 11s 8s 11 13 mph 1012.9mb 60f 60f
2:50pm 9ft 12s 8s 13 16 mph 1012.8mb 60f 59f
1:50pm 9ft 11s 8s 9 11 mph 1012.6mb 60f 60f
12:50pm 10ft 11s 8s 13 16 mph 1012.6mb 60f 60f
11:50am 8ft 11s 7s 13
mph
1012.6mb 59f 60f
10:50am 8.5ft 11s 8s 11 13 mph 1012.1mb 59f 60f
9:50am 9.5ft 12s 8s 11 13 mph 1011.7mb 59f 59f
8:50am 9.5ft 11s 8s 9 11 mph 1011.3mb 58f 59f
7:50am 10ft 11s 8s 13 16 mph 1011.1mb 58f 58f
6:50am 8ft 11s 8s 11 13 mph 1010.6mb 58f 58f
5:50am 9ft 11s 8s 9 11 mph 1010.3mb 58f 60f
4:50am 8.5ft 11s 8s 9 11 mph 1010mb 59f 60f
3:50am 8ft 11s 8s 9 11 mph 1009.7mb 59f 60f
2:50am 8ft 11s 8s 7 9 mph 1009.5mb 59f 60f
1:50am 7ft 11s 7s 7 11 mph 1009.4mb 59f 60f
12:50am 8ft 11s 8s 9 13 mph 1009.3mb 59f 60f
Tue 09/01 11:50pm 7.5ft 11s 7s 11 13 mph 1009.2mb 59f 59f
10:50pm 7.5ft 11s 7s 11 13 mph 1009.1mb 59f 59f
9:50pm 7.5ft 11s 7s 11 16 mph 1009.3mb 60f 60f
8:50pm 7.5ft 11s 8s 11 13 mph 1009.1mb 60f 60f
7:50pm 7ft 11s 7s 7 9 mph 1008.8mb 59f 59f
6:50pm 8ft 12s 8s 13 16 mph 1008.8mb 59f 58f
5:50pm 8ft 11s 8s 11 13 mph 1008.8mb 60f 60f
4:50pm 8.5ft 11s 8s 9 11 mph 1009mb 60f 58f
3:50pm 8ft 10s 8s 9 11 mph 1009.2mb 60f 60f
2:50pm 7.5ft 11s 8s 9 11 mph 1009.7mb 60f 60f
1:50pm 8.5ft 11s 8s 9 11 mph 1010mb 60f 61f
12:50pm 8.5ft 10s 8s 7
mph
1010.3mb 60f 61f
11:50am 8ft 11s 8s 7 9 mph 1010.6mb 60f 61f
10:50am 8.5ft 11s 8s 7 9 mph 1010.7mb 60f 61f
9:50am 9ft 11s 8s 7 9 mph 1010.3mb 60f 61f
8:50am 8.5ft 11s 8s 7 9 mph 1010.8mb 60f 60f
7:50am 8.5ft 11s 8s 7
mph
1010.8mb 60f 60f
6:50am 8.5ft 10s 8s 4 7 mph 1010.7mb 60f 60f
5:50am 9ft 11s 8s 2
mph
1010.5mb 60f 60f
4:50am 9ft 11s 8s 4 7 mph 1011mb 60f 60f
3:50am 9ft 11s 8s 4 7 mph 1011.2mb 60f 60f
2:50am 9ft 11s 7s 7 11 mph 1011mb 60f 61f
1:50am 9ft 11s 8s 11 13 mph 1011.1mb 60f 61f
12:50am 9ft 11s 8s 16 18 mph 1010.9mb 60f 61f
Mon 08/31 11:50pm 9ft 11s 8s 13 18 mph 1011.2mb 60f 62f
10:50pm 9ft 11s 8s 16 18 mph 1011.4mb 60f 62f
9:50pm 9ft 11s 8s 11 13 mph 1011.8mb 60f 61f
8:50pm 10ft 11s 8s 11 13 mph 1011.9mb 60f 61f
7:50pm 9.5ft 11s 8s 11 13 mph 1012mb 60f 61f
6:50pm 9.5ft 11s 8s 13 16 mph 1012.3mb 60f 62f
5:50pm 10ft 10s 8s 13 16 mph 1012.5mb 60f 62f
4:50pm 9ft 10s 8s 11 13 mph 1012.8mb 60f 61f
3:50pm 8.5ft 10s 7s 13 16 mph 1012.9mb 60f 61f